• Join FlightAware (Why Join?)
  • Login
  • US Flag 
09:08PM EDT


 

Airport Tracker/Info


-or-


 

Live Flight TrackerFlight Track Log ✈ ASQ5687 ✈ 23-Jun-2013 ✈ KIAD - CYYZ

Flight Track Log - Related Links

Times and Time Zones

All times are in EDT time to prevent confusion due to time zone crossing. See the ASQ5687 flight status page for this flight to view local times or setup timezone preferences in your user account.

Time Position Orientation Groundspeed Altitude Reporting Facility
EDT Latitude Longitude Course Direction KTS MPH feet Rate Location/Type
08:30AM 38.9500 -77.5000 303° West 173 199 1,300  Level Potomac TRACON
08:31AM 38.9833 -77.5667 303° West 219 252 2,900 1,740 Climbing Potomac TRACON
08:32AM 39.0400 -77.6361 316° Northwest 268 308 5,100 2,220 Climbing Washington Center
08:33AM 39.1106 -77.6461 354° North 281 323 7,500 2,220 Climbing Washington Center
08:34AM 39.1897 -77.6508 357° North 286 329 9,600 1,680 Climbing Washington Center
08:35AM 39.2753 -77.6453 North 292 336 11,000 1,260 Climbing Washington Center
08:36AM 39.3594 -77.5994 23° Northeast 298 343 12,100 1,260 Climbing Washington Center
08:37AM 39.4539 -77.5508 22° Northeast 329 379 13,600 1,380 Climbing Washington Center
08:38AM 39.5464 -77.5050 21° North 347 399 15,000 1,320 Climbing Washington Center
08:39AM 39.6444 -77.4578 20° North 358 412 16,400 1,320 Climbing New York Center
08:40AM 39.7450 -77.4511 North 373 429 17,700 1,260 Climbing New York Center
08:41AM 39.8494 -77.4503 360° North 373 429 19,000 1,260 Climbing New York Center
08:42AM 39.9514 -77.4517 359° North 368 423 20,300 960 Climbing New York Center
08:43AM 40.0503 -77.4722 351° North 363 418 21,000 420 Climbing New York Center
08:44AM 40.1419 -77.5133 341° North 375 432 21,200 600 Climbing New York Center
08:45AM 40.2481 -77.5536 344° North 380 437 22,300 1,140 Climbing New York Center
08:46AM 40.3500 -77.5936 343° North 385 443 23,500 1,140 Climbing New York Center
08:47AM 40.4478 -77.6333 343° North 378 435 24,600 780 Climbing New York Center
08:49AM 40.6522 -77.7150 343° North 359 413 25,900 600 Climbing Cleveland Center
08:50AM 40.7556 -77.7542 344° North 370 426 26,400 480 Climbing Cleveland Center
08:51AM 40.8608 -77.7964 343° North 385 443 26,900 480 Climbing Cleveland Center
08:52AM 40.9578 -77.8364 343° North 391 450 27,400 480 Climbing Cleveland Center
08:53AM 41.0628 -77.8758 344° North 391 450 27,900 300 Climbing Cleveland Center
08:54AM 41.1722 -77.9211 343° North 397 457 28,000  Climbing Cleveland Center
08:55AM 41.2839 -77.9664 343° North 405 466 28,000  Level Cleveland Center
08:56AM 41.3975 -78.0114 343° North 410 472 28,000  Level Cleveland Center
08:57AM 41.5111 -78.0569 343° North 420 483 28,000  Level Cleveland Center
08:58AM 41.6289 -78.1022 344° North 431 496 28,000  Level Cleveland Center
08:59AM 41.7425 -78.1508 342° North 431 496 28,000  Level Cleveland Center
09:00AM 41.8603 -78.2022 342° North 431 496 28,000  Level Cleveland Center
09:01AM 41.9781 -78.2481 344° North 431 496 28,000  Level Cleveland Center
09:02AM 42.1042 -78.3022 342° North 431 496 28,000  Level Cleveland Center
09:03AM 42.2219 -78.3514 343° North 431 496 28,000  Level Cleveland Center
09:04AM 42.3417 -78.4006 343° North 436 502 28,000  Level Cleveland Center
09:05AM 42.4592 -78.4500 343° North 441 507 28,000 -660 Level Cleveland Center
09:06AM 42.5769 -78.4994 343° North 441 507 26,700 -1,020 Descending Cleveland Center
09:07AM 42.6967 -78.5492 343° North 441 507 26,000 -360 Descending Cleveland Center
09:08AM 42.8142 -78.5992 343° North 441 507 26,000 -660 Level Cleveland Center
09:09AM 42.9339 -78.6606 339° North 446 513 24,700 -1,620 Descending Cleveland Center
09:10AM 43.0111 -78.7972 308° West 437 503 22,800 -2,160 Descending Cleveland Center
09:11AM 43.0667 -78.8833 311° West 440 506 20,800 -2,580 Descending Toronto Center
09:12AM 43.1167 -79.0167 297° West 410 472 18,200 -2,580 Descending Toronto Center
09:13AM 43.1833 -79.1333 308° West 400 460 15,700 -2,520 Descending Toronto Center
09:14AM 43.2500 -79.2500 308° West 390 449 13,200 -1,740 Descending Toronto Center
09:15AM 43.3167 -79.3333 318° Northwest 330 380 12,300 -960 Descending Toronto Center
09:16AM 43.3833 -79.3833 331° Northwest 290 334 11,300 -960 Descending Toronto Center
09:17AM 43.4500 -79.4333 331° Northwest 290 334 10,400 -1,380 Descending Toronto Center
09:18AM 43.5167 -79.5000 324° Northwest 280 322 8,600 -1,380 Descending Toronto Center
09:19AM 43.5833 -79.5167 350° North 260 299 7,700 -1,680 Descending Toronto Center
09:20AM 43.6333 -79.4500 44° Northeast 240 276 5,300 -2,400 Descending Toronto Center
09:21AM 43.6833 -79.3833 44° Northeast 240 276 3,000 -1,200 Descending Toronto Center
09:22AM 43.7333 -79.4000 346° North 200 230 3,000 -60 Level Toronto Center
09:23AM 43.7500 -79.4500 295° West 190 219 2,900 -120 Descending Toronto Center